sensor_id;sensor_type;location;lat;lon;timestamp;pressure;altitude;pressure_sealevel;temperature;humidity
28626;BME280;18905;42.668;23.364;2023-04-01T00:01:53;94185.66;;;10.25;100.00
28626;BME280;18905;42.668;23.364;2023-04-01T00:04:19;94147.00;;;10.09;100.00
28626;BME280;18905;42.668;23.364;2023-04-01T00:06:46;94159.53;;;9.93;100.00
28626;BME280;18905;42.668;23.364;2023-04-01T00:09:13;94172.22;;;9.80;100.00
28626;BME280;18905;42.668;23.364;2023-04-01T00:11:38;94155.91;;;9.89;100.00
28626;BME280;18905;42.668;23.364;2023-04-01T00:14:04;94162.00;;;9.98;100.00
28626;BME280;18905;42.668;23.364;2023-04-01T00:16:30;94230.66;;;10.69;100.00
28626;BME280;18905;42.668;23.364;2023-04-01T00:18:56;94163.72;;;10.02;100.00
28626;BME280;18905;42.668;23.364;2023-04-01T00:21:21;94154.06;;;10.13;100.00
28626;BME280;18905;42.668;23.364;2023-04-01T00:23:48;94153.44;;;9.84;100.00
28626;BME280;18905;42.668;23.364;2023-04-01T00:26:14;94240.09;;;10.51;100.00
28626;BME280;18905;42.668;23.364;2023-04-01T00:28:44;94197.13;;;10.34;100.00
28626;BME280;18905;42.668;23.364;2023-04-01T00:31:13;94225.13;;;10.29;100.00
28626;BME280;18905;42.668;23.364;2023-04-01T00:33:40;94235.13;;;10.29;100.00
28626;BME280;18905;42.668;23.364;2023-04-01T00:36:12;94236.72;;;10.54;100.00
28626;BME280;18905;42.668;23.364;2023-04-01T00:38:39;94223.22;;;10.54;100.00
28626;BME280;18905;42.668;23.364;2023-04-01T00:41:06;94226.03;;;10.69;100.00
28626;BME280;18905;42.668;23.364;2023-04-01T00:43:32;94124.50;;;10.17;100.00
28626;BME280;18905;42.668;23.364;2023-04-01T00:45:57;94210.63;;;10.70;100.00
28626;BME280;18905;42.668;23.364;2023-04-01T00:48:29;94182.16;;;10.72;100.00
28626;BME280;18905;42.668;23.364;2023-04-01T00:51:05;94127.16;;;10.65;100.00
28626;BME280;18905;42.668;23.364;2023-04-01T00:53:33;94116.81;;;10.67;100.00
28626;BME280;18905;42.668;23.364;2023-04-01T00:56:04;94121.97;;;10.72;100.00
28626;BME280;18905;42.668;23.364;2023-04-01T00:58:33;94187.66;;;11.27;100.00
28626;BME280;18905;42.668;23.364;2023-04-01T01:01:00;94121.22;;;10.99;100.00
28626;BME280;18905;42.668;23.364;2023-04-01T01:03:27;94185.09;;;11.46;100.00
28626;BME280;18905;42.668;23.364;2023-04-01T01:08:51;94160.78;;;11.46;100.00
28626;BME280;18905;42.668;23.364;2023-04-01T01:11:24;94171.03;;;11.41;100.00
28626;BME280;18905;42.668;23.364;2023-04-01T01:13:59;94167.91;;;11.39;100.00
28626;BME280;18905;42.668;23.364;2023-04-01T01:16:29;94147.41;;;11.38;100.00
28626;BME280;18905;42.668;23.364;2023-04-01T01:26:52;94152.22;;;11.44;100.00
28626;BME280;18905;42.668;23.364;2023-04-01T01:35:31;94145.00;;;11.48;100.00
28626;BME280;18905;42.668;23.364;2023-04-01T01:38:06;94122.38;;;11.41;100.00
28626;BME280;18905;42.668;23.364;2023-04-01T01:40:34;94003.41;;;10.39;100.00
28626;BME280;18905;42.668;23.364;2023-04-01T01:43:05;94108.34;;;11.08;100.00
28626;BME280;18905;42.668;23.364;2023-04-01T01:45:35;94070.69;;;10.99;100.00
28626;BME280;18905;42.668;23.364;2023-04-01T01:48:04;94054.44;;;11.11;100.00
28626;BME280;18905;42.668;23.364;2023-04-01T01:50:33;94045.00;;;11.05;100.00
28626;BME280;18905;42.668;23.364;2023-04-01T01:53:11;94113.41;;;11.37;100.00
28626;BME280;18905;42.668;23.364;2023-04-01T01:55:39;94046.34;;;11.11;100.00
28626;BME280;18905;42.668;23.364;2023-04-01T01:58:13;94089.47;;;11.51;100.00
28626;BME280;18905;42.668;23.364;2023-04-01T02:00:43;94042.41;;;11.24;100.00
28626;BME280;18905;42.668;23.364;2023-04-01T02:03:12;94024.09;;;11.18;100.00
28626;BME280;18905;42.668;23.364;2023-04-01T02:05:39;94036.03;;;11.17;100.00
28626;BME280;18905;42.668;23.364;2023-04-01T02:08:14;94103.47;;;11.68;100.00
28626;BME280;18905;42.668;23.364;2023-04-01T02:10:46;94075.47;;;11.61;100.00
28626;BME280;18905;42.668;23.364;2023-04-01T02:13:24;94035.56;;;11.42;100.00
28626;BME280;18905;42.668;23.364;2023-04-01T02:15:50;94103.81;;;11.82;100.00
28626;BME280;18905;42.668;23.364;2023-04-01T02:18:20;94009.22;;;11.24;100.00
28626;BME280;18905;42.668;23.364;2023-04-01T02:20:46;94089.19;;;11.40;100.00
28626;BME280;18905;42.668;23.364;2023-04-01T02:23:12;94072.69;;;11.30;100.00
28626;BME280;18905;42.668;23.364;2023-04-01T02:25:38;94009.06;;;10.89;100.00
28626;BME280;18905;42.668;23.364;2023-04-01T02:28:07;93994.34;;;10.59;100.00
28626;BME280;18905;42.668;23.364;2023-04-01T02:30:36;94057.81;;;11.08;100.00
28626;BME280;18905;42.668;23.364;2023-04-01T02:33:03;94010.44;;;10.83;100.00
28626;BME280;18905;42.668;23.364;2023-04-01T02:35:29;94038.03;;;11.04;100.00
28626;BME280;18905;42.668;23.364;2023-04-01T02:37:55;94013.69;;;10.89;100.00
28626;BME280;18905;42.668;23.364;2023-04-01T02:40:21;93993.56;;;10.86;100.00
28626;BME280;18905;42.668;23.364;2023-04-01T02:42:47;94025.94;;;11.14;100.00
28626;BME280;18905;42.668;23.364;2023-04-01T02:45:13;94061.69;;;11.38;100.00
28626;BME280;18905;42.668;23.364;2023-04-01T02:47:39;94063.19;;;11.36;100.00
28626;BME280;18905;42.668;23.364;2023-04-01T02:50:05;94055.06;;;11.36;100.00
28626;BME280;18905;42.668;23.364;2023-04-01T02:52:31;94093.78;;;11.40;100.00
28626;BME280;18905;42.668;23.364;2023-04-01T02:54:57;94042.75;;;11.07;100.00
28626;BME280;18905;42.668;23.364;2023-04-01T02:57:24;94048.00;;;11.16;100.00
28626;BME280;18905;42.668;23.364;2023-04-01T02:59:50;94029.91;;;10.77;100.00
28626;BME280;18905;42.668;23.364;2023-04-01T03:02:15;94041.72;;;10.45;100.00
28626;BME280;18905;42.668;23.364;2023-04-01T03:04:41;94093.63;;;10.78;100.00
28626;BME280;18905;42.668;23.364;2023-04-01T03:07:07;94028.69;;;10.47;100.00
28626;BME280;18905;42.668;23.364;2023-04-01T03:09:33;94066.72;;;10.81;100.00
28626;BME280;18905;42.668;23.364;2023-04-01T03:11:59;94065.91;;;10.81;100.00
28626;BME280;18905;42.668;23.364;2023-04-01T03:14:25;94037.16;;;10.73;100.00
28626;BME280;18905;42.668;23.364;2023-04-01T03:16:50;94039.38;;;10.83;100.00
28626;BME280;18905;42.668;23.364;2023-04-01T03:19:15;94055.13;;;10.81;100.00
28626;BME280;18905;42.668;23.364;2023-04-01T03:21:41;94036.72;;;10.19;100.00
28626;BME280;18905;42.668;23.364;2023-04-01T03:24:07;94056.47;;;10.47;100.00
28626;BME280;18905;42.668;23.364;2023-04-01T03:26:33;94131.09;;;11.07;100.00
28626;BME280;18905;42.668;23.364;2023-04-01T03:28:58;94075.16;;;10.80;100.00
28626;BME280;18905;42.668;23.364;2023-04-01T03:31:24;94117.69;;;11.10;100.00
28626;BME280;18905;42.668;23.364;2023-04-01T03:33:50;94114.47;;;11.05;100.00
28626;BME280;18905;42.668;23.364;2023-04-01T03:36:16;94145.34;;;11.47;100.00
28626;BME280;18905;42.668;23.364;2023-04-01T03:38:42;94091.13;;;11.12;100.00
28626;BME280;18905;42.668;23.364;2023-04-01T03:41:12;94139.50;;;11.17;100.00
28626;BME280;18905;42.668;23.364;2023-04-01T03:43:38;94105.06;;;11.14;100.00
28626;BME280;18905;42.668;23.364;2023-04-01T03:46:03;94092.66;;;11.25;100.00
28626;BME280;18905;42.668;23.364;2023-04-01T03:48:29;94023.72;;;11.04;100.00
28626;BME280;18905;42.668;23.364;2023-04-01T03:50:54;94070.53;;;11.08;100.00
28626;BME280;18905;42.668;23.364;2023-04-01T03:53:20;94076.13;;;10.87;100.00
28626;BME280;18905;42.668;23.364;2023-04-01T03:55:45;94075.25;;;10.83;100.00
28626;BME280;18905;42.668;23.364;2023-04-01T03:58:11;94058.53;;;10.78;100.00
28626;BME280;18905;42.668;23.364;2023-04-01T04:00:37;93995.25;;;10.24;100.00
28626;BME280;18905;42.668;23.364;2023-04-01T04:03:02;93957.25;;;10.29;100.00
28626;BME280;18905;42.668;23.364;2023-04-01T04:05:28;94039.59;;;10.50;100.00
28626;BME280;18905;42.668;23.364;2023-04-01T04:07:54;94042.34;;;10.66;100.00
28626;BME280;18905;42.668;23.364;2023-04-01T04:10:20;93969.50;;;10.26;100.00
28626;BME280;18905;42.668;23.364;2023-04-01T04:12:49;93991.06;;;10.38;100.00
28626;BME280;18905;42.668;23.364;2023-04-01T04:15:14;93958.16;;;10.21;100.00
28626;BME280;18905;42.668;23.364;2023-04-01T04:17:40;93989.16;;;10.66;100.00
28626;BME280;18905;42.668;23.364;2023-04-01T04:20:06;94000.78;;;10.55;100.00
28626;BME280;18905;42.668;23.364;2023-04-01T04:22:31;93971.97;;;10.59;100.00
28626;BME280;18905;42.668;23.364;2023-04-01T04:24:56;93918.75;;;10.16;100.00
28626;BME280;18905;42.668;23.364;2023-04-01T04:27:22;93923.59;;;10.38;100.00
28626;BME280;18905;42.668;23.364;2023-04-01T04:29:47;93952.34;;;10.46;100.00
28626;BME280;18905;42.668;23.364;2023-04-01T04:32:13;93917.91;;;10.28;100.00
28626;BME280;18905;42.668;23.364;2023-04-01T04:34:38;93917.03;;;10.24;100.00
28626;BME280;18905;42.668;23.364;2023-04-01T04:37:04;93971.78;;;10.24;100.00
28626;BME280;18905;42.668;23.364;2023-04-01T04:39:29;93903.19;;;9.74;100.00
28626;BME280;18905;42.668;23.364;2023-04-01T04:41:55;93980.34;;;10.42;100.00
28626;BME280;18905;42.668;23.364;2023-04-01T04:44:20;93871.28;;;9.76;100.00
28626;BME280;18905;42.668;23.364;2023-04-01T04:46:46;93904.25;;;9.97;100.00
28626;BME280;18905;42.668;23.364;2023-04-01T04:49:11;93958.03;;;10.57;100.00
28626;BME280;18905;42.668;23.364;2023-04-01T04:51:37;93900.63;;;10.17;100.00
28626;BME280;18905;42.668;23.364;2023-04-01T04:54:03;93884.81;;;10.15;100.00
28626;BME280;18905;42.668;23.364;2023-04-01T04:56:29;93946.06;;;10.70;100.00
28626;BME280;18905;42.668;23.364;2023-04-01T04:58:56;93946.09;;;10.85;100.00
28626;BME280;18905;42.668;23.364;2023-04-01T05:01:21;93880.22;;;10.90;100.00
28626;BME280;18905;42.668;23.364;2023-04-01T05:03:47;93908.09;;;11.72;100.00
28626;BME280;18905;42.668;23.364;2023-04-01T05:06:13;93959.63;;;12.32;100.00
28626;BME280;18905;42.668;23.364;2023-04-01T05:08:40;93895.47;;;12.14;100.00
28626;BME280;18905;42.668;23.364;2023-04-01T05:11:09;93938.00;;;12.70;100.00
28626;BME280;18905;42.668;23.364;2023-04-01T05:13:36;93912.78;;;12.89;100.00
28626;BME280;18905;42.668;23.364;2023-04-01T05:16:02;93841.81;;;12.57;100.00
28626;BME280;18905;42.668;23.364;2023-04-01T05:18:28;93851.44;;;12.77;100.00
28626;BME280;18905;42.668;23.364;2023-04-01T05:20:54;93861.03;;;13.13;100.00
28626;BME280;18905;42.668;23.364;2023-04-01T05:23:21;93922.41;;;13.50;100.00
28626;BME280;18905;42.668;23.364;2023-04-01T05:25:49;93919.38;;;13.29;98.09
28626;BME280;18905;42.668;23.364;2023-04-01T05:28:16;93916.13;;;13.20;97.13
28626;BME280;18905;42.668;23.364;2023-04-01T05:30:42;93917.06;;;13.31;95.57
28626;BME280;18905;42.668;23.364;2023-04-01T05:33:09;93862.09;;;13.08;96.47
28626;BME280;18905;42.668;23.364;2023-04-01T05:35:35;93840.38;;;13.31;95.08
28626;BME280;18905;42.668;23.364;2023-04-01T05:38:01;93851.66;;;13.59;93.42
28626;BME280;18905;42.668;23.364;2023-04-01T05:40:27;93860.59;;;13.89;93.05
28626;BME280;18905;42.668;23.364;2023-04-01T05:42:53;93907.25;;;13.98;86.72
28626;BME280;18905;42.668;23.364;2023-04-01T05:45:18;93924.31;;;14.24;88.08
28626;BME280;18905;42.668;23.364;2023-04-01T05:47:44;93927.97;;;13.83;85.89
28626;BME280;18905;42.668;23.364;2023-04-01T05:50:10;93850.47;;;13.08;91.29
28626;BME280;18905;42.668;23.364;2023-04-01T05:52:36;93911.78;;;13.38;98.75
28626;BME280;18905;42.668;23.364;2023-04-01T05:55:02;93877.59;;;12.89;89.74
28626;BME280;18905;42.668;23.364;2023-04-01T05:57:28;93874.38;;;12.61;91.04
28626;BME280;18905;42.668;23.364;2023-04-01T05:59:53;93840.44;;;12.06;94.78
28626;BME280;18905;42.668;23.364;2023-04-01T06:02:19;93844.06;;;11.95;95.28
28626;BME280;18905;42.668;23.364;2023-04-01T06:04:45;93855.19;;;12.09;95.71
28626;BME280;18905;42.668;23.364;2023-04-01T06:07:16;93883.81;;;13.34;91.62
28626;BME280;18905;42.668;23.364;2023-04-01T06:09:43;93826.16;;;13.11;83.91
28626;BME280;18905;42.668;23.364;2023-04-01T06:12:21;93892.88;;;12.78;90.74
28626;BME280;18905;42.668;23.364;2023-04-01T06:20:49;93895.03;;;13.33;87.35
28626;BME280;18905;42.668;23.364;2023-04-01T06:43:00;93876.31;;;12.60;98.65
28626;BME280;18905;42.668;23.364;2023-04-01T06:56:10;93848.59;;;12.48;100.00
28626;BME280;18905;42.668;23.364;2023-04-01T06:58:46;93841.41;;;12.78;100.00
28626;BME280;18905;42.668;23.364;2023-04-01T07:01:20;93793.63;;;12.66;100.00
28626;BME280;18905;42.668;23.364;2023-04-01T07:04:00;93850.72;;;12.99;100.00
28626;BME280;18905;42.668;23.364;2023-04-01T07:06:32;93749.22;;;12.48;100.00
28626;BME280;18905;42.668;23.364;2023-04-01T07:09:05;93743.13;;;12.32;100.00
28626;BME280;18905;42.668;23.364;2023-04-01T07:11:34;93766.78;;;12.35;100.00
28626;BME280;18905;42.668;23.364;2023-04-01T07:16:54;93777.38;;;13.11;100.00
28626;BME280;18905;42.668;23.364;2023-04-01T07:19:29;93835.19;;;13.74;99.72
28626;BME280;18905;42.668;23.364;2023-04-01T07:22:04;93810.56;;;13.57;97.75
28626;BME280;18905;42.668;23.364;2023-04-01T07:24:39;93780.22;;;13.22;99.27
28626;BME280;18905;42.668;23.364;2023-04-01T07:27:11;93845.53;;;13.65;99.71
28626;BME280;18905;42.668;23.364;2023-04-01T07:29:38;93752.34;;;13.21;99.06
28626;BME280;18905;42.668;23.364;2023-04-01T07:32:27;93835.59;;;13.73;98.06
28626;BME280;18905;42.668;23.364;2023-04-01T07:37:52;93829.16;;;14.14;98.45
28626;BME280;18905;42.668;23.364;2023-04-01T07:40:42;93844.53;;;14.32;97.88
28626;BME280;18905;42.668;23.364;2023-04-01T07:43:22;93840.31;;;14.38;95.92
28626;BME280;18905;42.668;23.364;2023-04-01T07:51:03;93768.25;;;14.44;92.40
28626;BME280;18905;42.668;23.364;2023-04-01T08:02:10;93768.28;;;13.52;98.28
28626;BME280;18905;42.668;23.364;2023-04-01T08:13:15;93813.25;;;14.45;94.30
28626;BME280;18905;42.668;23.364;2023-04-01T08:15:55;93739.09;;;14.05;94.11
28626;BME280;18905;42.668;23.364;2023-04-01T08:24:42;93722.59;;;14.60;88.76
28626;BME280;18905;42.668;23.364;2023-04-01T08:27:24;93770.38;;;15.08;88.13
28626;BME280;18905;42.668;23.364;2023-04-01T08:32:56;93714.66;;;15.35;83.61
28626;BME280;18905;42.668;23.364;2023-04-01T08:35:37;93764.38;;;15.36;84.09
28626;BME280;18905;42.668;23.364;2023-04-01T08:38:10;93665.66;;;14.71;82.45
28626;BME280;18905;42.668;23.364;2023-04-01T08:41:07;93645.16;;;14.80;81.94
28626;BME280;18905;42.668;23.364;2023-04-01T08:47:08;93718.03;;;15.22;81.39
28626;BME280;18905;42.668;23.364;2023-04-01T09:11:08;93689.38;;;16.27;73.49
28626;BME280;18905;42.668;23.364;2023-04-01T09:18:45;93710.47;;;16.69;71.43
28626;BME280;18905;42.668;23.364;2023-04-01T09:27:45;93702.69;;;16.57;61.91
28626;BME280;18905;42.668;23.364;2023-04-01T09:30:41;93627.09;;;16.15;60.36
28626;BME280;18905;42.668;23.364;2023-04-01T09:33:48;93685.56;;;16.81;59.70
28626;BME280;18905;42.668;23.364;2023-04-01T09:36:45;93626.38;;;16.57;60.59
28626;BME280;18905;42.668;23.364;2023-04-01T09:42:22;93679.69;;;16.75;60.05
28626;BME280;18905;42.668;23.364;2023-04-01T09:44:59;93581.97;;;16.21;59.04
28626;BME280;18905;42.668;23.364;2023-04-01T09:48:01;93650.53;;;16.58;59.98
28626;BME280;18905;42.668;23.364;2023-04-01T10:15:29;93632.97;;;16.91;66.57
28626;BME280;18905;42.668;23.364;2023-04-01T10:20:50;93615.84;;;16.62;67.35
28626;BME280;18905;42.668;23.364;2023-04-01T10:23:25;93623.25;;;16.62;68.19
28626;BME280;18905;42.668;23.364;2023-04-01T10:48:55;93582.78;;;16.46;67.86
28626;BME280;18905;42.668;23.364;2023-04-01T10:51:38;93581.59;;;16.37;69.01
28626;BME280;18905;42.668;23.364;2023-04-01T10:54:17;93580.84;;;16.54;68.25
28626;BME280;18905;42.668;23.364;2023-04-01T10:56:54;93578.88;;;16.51;67.36
28626;BME280;18905;42.668;23.364;2023-04-01T11:43:45;93653.56;;;16.18;70.58
28626;BME280;18905;42.668;23.364;2023-04-01T11:51:50;93738.25;;;15.89;88.80
28626;BME280;18905;42.668;23.364;2023-04-01T12:13:24;93808.75;;;12.07;100.00
28626;BME280;18905;42.668;23.364;2023-04-01T12:16:13;93749.19;;;11.65;100.00
28626;BME280;18905;42.668;23.364;2023-04-01T12:18:57;93762.63;;;11.61;100.00
28626;BME280;18905;42.668;23.364;2023-04-01T12:21:37;93799.69;;;12.18;100.00
28626;BME280;18905;42.668;23.364;2023-04-01T12:24:22;93828.28;;;12.57;100.00
28626;BME280;18905;42.668;23.364;2023-04-01T12:27:13;93827.75;;;12.29;100.00
28626;BME280;18905;42.668;23.364;2023-04-01T12:40:46;93843.38;;;11.63;100.00
28626;BME280;18905;42.668;23.364;2023-04-01T13:00:03;93832.31;;;11.52;100.00
28626;BME280;18905;42.668;23.364;2023-04-01T13:16:11;93752.44;;;11.55;100.00
28626;BME280;18905;42.668;23.364;2023-04-01T13:24:33;93748.00;;;12.68;100.00
28626;BME280;18905;42.668;23.364;2023-04-01T13:27:21;93656.25;;;12.89;100.00
28626;BME280;18905;42.668;23.364;2023-04-01T13:32:48;93725.91;;;13.41;100.00
28626;BME280;18905;42.668;23.364;2023-04-01T13:43:48;93704.88;;;14.30;100.00
28626;BME280;18905;42.668;23.364;2023-04-01T14:05:28;93659.00;;;15.19;100.00
28626;BME280;18905;42.668;23.364;2023-04-01T14:14:09;93588.34;;;13.71;100.00
28626;BME280;18905;42.668;23.364;2023-04-01T14:33:15;93627.97;;;13.13;100.00
28626;BME280;18905;42.668;23.364;2023-04-01T14:48:37;93625.16;;;13.72;100.00
28626;BME280;18905;42.668;23.364;2023-04-01T14:50:54;93544.31;;;13.44;100.00
28626;BME280;18905;42.668;23.364;2023-04-01T14:55:54;93553.03;;;14.07;100.00
28626;BME280;18905;42.668;23.364;2023-04-01T14:58:40;93603.69;;;14.36;100.00
28626;BME280;18905;42.668;23.364;2023-04-01T15:15:10;93635.69;;;13.77;100.00
28626;BME280;18905;42.668;23.364;2023-04-01T15:20:59;93630.75;;;13.53;100.00
28626;BME280;18905;42.668;23.364;2023-04-01T15:23:41;93590.28;;;13.04;100.00
28626;BME280;18905;42.668;23.364;2023-04-01T15:26:17;93561.72;;;12.81;100.00
28626;BME280;18905;42.668;23.364;2023-04-01T15:29:11;93603.00;;;13.00;100.00
28626;BME280;18905;42.668;23.364;2023-04-01T15:31:55;93630.03;;;13.23;100.00
28626;BME280;18905;42.668;23.364;2023-04-01T15:45:36;93647.97;;;13.05;100.00
28626;BME280;18905;42.668;23.364;2023-04-01T16:12:57;93889.91;;;8.93;100.00
28626;BME280;18905;42.668;23.364;2023-04-01T16:15:49;93905.50;;;9.00;100.00
28626;BME280;18905;42.668;23.364;2023-04-01T16:24:05;93896.03;;;8.58;100.00
28626;BME280;18905;42.668;23.364;2023-04-01T16:34:36;93932.31;;;8.96;100.00
28626;BME280;18905;42.668;23.364;2023-04-01T16:37:17;93866.19;;;8.51;100.00
28626;BME280;18905;42.668;23.364;2023-04-01T16:42:43;93884.75;;;8.32;100.00
28626;BME280;18905;42.668;23.364;2023-04-01T16:45:38;93964.47;;;8.93;100.00
28626;BME280;18905;42.668;23.364;2023-04-01T16:48:17;93877.72;;;8.19;100.00
28626;BME280;18905;42.668;23.364;2023-04-01T16:56:07;93891.69;;;8.33;100.00
28626;BME280;18905;42.668;23.364;2023-04-01T16:58:41;93925.78;;;8.41;100.00
28626;BME280;18905;42.668;23.364;2023-04-01T17:01:12;93941.81;;;8.37;100.00
28626;BME280;18905;42.668;23.364;2023-04-01T17:03:44;93957.91;;;8.58;100.00
28626;BME280;18905;42.668;23.364;2023-04-01T17:09:49;93947.69;;;8.51;100.00
28626;BME280;18905;42.668;23.364;2023-04-01T17:15:10;93944.72;;;8.44;100.00
28626;BME280;18905;42.668;23.364;2023-04-01T17:17:51;93953.06;;;8.51;100.00
28626;BME280;18905;42.668;23.364;2023-04-01T17:20:46;93964.00;;;8.67;100.00
28626;BME280;18905;42.668;23.364;2023-04-01T17:42:06;93912.81;;;7.81;100.00
28626;BME280;18905;42.668;23.364;2023-04-01T17:52:42;94012.91;;;8.28;100.00
28626;BME280;18905;42.668;23.364;2023-04-01T17:58:20;93989.28;;;8.13;100.00
28626;BME280;18905;42.668;23.364;2023-04-01T18:06:33;94025.94;;;8.38;100.00
28626;BME280;18905;42.668;23.364;2023-04-01T18:10:11;94053.06;;;8.33;100.00
28626;BME280;18905;42.668;23.364;2023-04-01T18:23:19;94078.94;;;8.17;100.00
28626;BME280;18905;42.668;23.364;2023-04-01T18:25:48;94001.88;;;7.71;100.00
28626;BME280;18905;42.668;23.364;2023-04-01T18:28:24;93986.34;;;7.56;100.00
28626;BME280;18905;42.668;23.364;2023-04-01T18:39:10;94066.78;;;8.11;100.00
28626;BME280;18905;42.668;23.364;2023-04-01T18:44:56;94018.78;;;8.01;100.00
28626;BME280;18905;42.668;23.364;2023-04-01T18:50:27;94076.66;;;8.27;100.00
28626;BME280;18905;42.668;23.364;2023-04-01T18:53:44;94083.63;;;8.28;100.00
28626;BME280;18905;42.668;23.364;2023-04-01T18:58:30;94060.28;;;8.41;100.00
28626;BME280;18905;42.668;23.364;2023-04-01T19:01:10;94101.06;;;8.63;100.00
28626;BME280;18905;42.668;23.364;2023-04-01T19:06:30;94017.00;;;8.05;100.00
28626;BME280;18905;42.668;23.364;2023-04-01T19:09:16;94090.38;;;8.34;100.00
28626;BME280;18905;42.668;23.364;2023-04-01T19:11:54;94073.19;;;8.18;100.00
28626;BME280;18905;42.668;23.364;2023-04-01T19:27:53;94115.31;;;8.84;100.00
28626;BME280;18905;42.668;23.364;2023-04-01T19:30:52;94125.09;;;8.89;100.00
28626;BME280;18905;42.668;23.364;2023-04-01T19:33:32;94101.75;;;8.81;100.00
28626;BME280;18905;42.668;23.364;2023-04-01T19:36:13;94119.69;;;8.89;100.00
28626;BME280;18905;42.668;23.364;2023-04-01T19:39:12;94139.06;;;8.82;100.00
28626;BME280;18905;42.668;23.364;2023-04-01T19:42:01;94142.97;;;8.73;100.00
28626;BME280;18905;42.668;23.364;2023-04-01T19:52:36;94104.75;;;8.38;100.00
28626;BME280;18905;42.668;23.364;2023-04-01T20:03:04;94159.56;;;8.75;100.00
28626;BME280;18905;42.668;23.364;2023-04-01T20:05:48;94154.31;;;8.78;100.00
28626;BME280;18905;42.668;23.364;2023-04-01T20:08:42;94103.03;;;8.54;100.00
28626;BME280;18905;42.668;23.364;2023-04-01T20:11:16;94152.81;;;8.89;100.00
28626;BME280;18905;42.668;23.364;2023-04-01T20:16:21;94158.38;;;9.05;100.00
28626;BME280;18905;42.668;23.364;2023-04-01T20:18:55;94119.25;;;8.66;100.00
28626;BME280;18905;42.668;23.364;2023-04-01T20:21:28;94159.88;;;8.94;100.00
28626;BME280;18905;42.668;23.364;2023-04-01T20:24:04;94093.72;;;8.52;100.00
28626;BME280;18905;42.668;23.364;2023-04-01T20:26:38;94163.50;;;8.98;100.00
28626;BME280;18905;42.668;23.364;2023-04-01T20:29:47;94168.94;;;8.89;100.00
28626;BME280;18905;42.668;23.364;2023-04-01T20:32:28;94069.66;;;8.35;100.00
28626;BME280;18905;42.668;23.364;2023-04-01T20:35:08;94161.00;;;8.93;100.00
28626;BME280;18905;42.668;23.364;2023-04-01T20:43:39;94159.31;;;8.88;100.00
28626;BME280;18905;42.668;23.364;2023-04-01T20:51:38;94156.28;;;8.90;100.00
28626;BME280;18905;42.668;23.364;2023-04-01T20:54:35;94170.06;;;8.88;100.00
28626;BME280;18905;42.668;23.364;2023-04-01T21:07:21;94139.34;;;8.69;100.00
28626;BME280;18905;42.668;23.364;2023-04-01T21:10:12;94186.53;;;8.66;100.00
28626;BME280;18905;42.668;23.364;2023-04-01T21:12:53;94190.75;;;8.76;100.00
28626;BME280;18905;42.668;23.364;2023-04-01T21:15:33;94190.53;;;8.60;100.00
28626;BME280;18905;42.668;23.364;2023-04-01T21:18:24;94165.41;;;8.77;100.00
28626;BME280;18905;42.668;23.364;2023-04-01T21:21:24;94184.06;;;9.02;100.00
28626;BME280;18905;42.668;23.364;2023-04-01T21:24:34;94152.59;;;8.74;100.00
28626;BME280;18905;42.668;23.364;2023-04-01T21:29:58;94188.25;;;9.12;100.00
28626;BME280;18905;42.668;23.364;2023-04-01T21:43:40;94190.06;;;9.20;100.00
28626;BME280;18905;42.668;23.364;2023-04-01T21:49:37;94191.91;;;9.28;100.00
28626;BME280;18905;42.668;23.364;2023-04-01T21:58:05;94192.06;;;9.11;100.00
28626;BME280;18905;42.668;23.364;2023-04-01T22:00:42;94189.50;;;8.94;100.00
28626;BME280;18905;42.668;23.364;2023-04-01T22:03:41;94195.88;;;9.10;100.00
28626;BME280;18905;42.668;23.364;2023-04-01T22:11:48;94185.34;;;9.17;100.00
28626;BME280;18905;42.668;23.364;2023-04-01T22:14:24;94096.88;;;8.74;100.00
28626;BME280;18905;42.668;23.364;2023-04-01T22:16:59;94186.25;;;9.21;100.00
28626;BME280;18905;42.668;23.364;2023-04-01T22:27:24;94174.97;;;8.86;100.00
28626;BME280;18905;42.668;23.364;2023-04-01T22:30:07;94179.28;;;8.87;100.00
28626;BME280;18905;42.668;23.364;2023-04-01T22:32:46;94168.66;;;8.62;100.00
28626;BME280;18905;42.668;23.364;2023-04-01T22:43:12;94124.00;;;8.49;100.00
28626;BME280;18905;42.668;23.364;2023-04-01T22:53:32;94173.97;;;8.50;100.00
28626;BME280;18905;42.668;23.364;2023-04-01T22:56:07;94142.22;;;8.43;100.00
28626;BME280;18905;42.668;23.364;2023-04-01T22:58:42;94190.47;;;8.69;100.00
28626;BME280;18905;42.668;23.364;2023-04-01T23:01:15;94205.47;;;8.78;100.00
28626;BME280;18905;42.668;23.364;2023-04-01T23:03:44;94203.13;;;8.68;100.00
28626;BME280;18905;42.668;23.364;2023-04-01T23:06:34;94092.69;;;7.86;100.00
28626;BME280;18905;42.668;23.364;2023-04-01T23:09:14;94198.63;;;8.60;100.00
28626;BME280;18905;42.668;23.364;2023-04-01T23:11:55;94195.94;;;8.81;100.00
28626;BME280;18905;42.668;23.364;2023-04-01T23:22:54;94189.19;;;8.46;100.00
28626;BME280;18905;42.668;23.364;2023-04-01T23:34:39;94215.31;;;8.74;100.00
28626;BME280;18905;42.668;23.364;2023-04-01T23:36:42;94156.22;;;8.57;100.00
28626;BME280;18905;42.668;23.364;2023-04-01T23:39:35;94175.09;;;8.49;100.00
28626;BME280;18905;42.668;23.364;2023-04-01T23:42:24;94216.47;;;8.85;100.00
28626;BME280;18905;42.668;23.364;2023-04-01T23:44:53;94209.13;;;8.74;100.00
28626;BME280;18905;42.668;23.364;2023-04-01T23:47:23;94214.00;;;8.80;100.00
28626;BME280;18905;42.668;23.364;2023-04-01T23:50:06;94181.50;;;8.36;100.00
28626;BME280;18905;42.668;23.364;2023-04-01T23:53:21;94203.84;;;8.57;100.00